Time;durP1;ratioP1;P1;durP2;ratioP2;P2;SDS_P1;SDS_P2;PMS_P1;PMS_P2;Temp;Humidity;BMP_temperature;BMP_pressure;BME280_temperature;BME280_humidity;BME280_pressure;Samples;Min_cycle;Max_cycle;Signal;HPM_P1;HPM_P2
2022/08/08 00:00:05;;;;;;;2.85;1.40;;;;;;;27.68;28.29;102011.34;5115709;28;20031;-54
2022/08/08 00:03:01;;;;;;;3.67;1.42;;;;;;;27.57;28.30;102008.56;5115771;28;20028;-49
2022/08/08 00:05:36;;;;;;;3.47;1.42;;;;;;;27.58;28.67;102018.25;5097792;28;20073;-54
2022/08/08 00:08:31;;;;;;;3.70;1.45;;;;;;;27.51;28.50;102008.50;5115823;28;20060;-55
2022/08/08 00:11:02;;;;;;;;;;;;;;;27.69;28.14;102007.84;5091318;28;20097;-51
2022/08/08 00:13:39;;;;;;;2.92;1.60;;;;;;;27.73;28.19;102009.66;5096891;28;19964;-44
2022/08/08 00:16:11;;;;;;;3.42;1.30;;;;;;;27.63;28.06;102020.97;5115519;28;20027;-47
2022/08/08 00:18:50;;;;;;;4.30;1.23;;;;;;;27.48;28.51;102013.72;5097638;28;20075;-44
2022/08/08 00:21:28;;;;;;;5.10;1.20;;;;;;;27.41;28.60;102017.97;5080711;28;20031;-51
2022/08/08 00:24:00;;;;;;;3.65;1.40;;;;;;;27.36;28.73;101998.56;5115609;28;20500;-44
2022/08/08 00:26:40;;;;;;;13.43;1.65;;;;;;;27.26;28.63;101992.28;5080742;28;20024;-44
2022/08/08 00:29:26;;;;;;;2.33;1.40;;;;;;;27.47;28.42;102008.44;5079735;28;20032;-43
2022/08/08 00:32:00;;;;;;;7.78;1.75;;;;;;;27.39;28.65;102000.34;5115273;28;20130;-43
2022/08/08 00:35:19;;;;;;;3.50;1.27;;;;;;;27.36;28.85;102008.25;5097544;28;20035;-45
2022/08/08 00:37:34;;;;;;;3.58;1.60;;;;;;;27.35;28.71;101999.44;5092941;28;20055;-44
2022/08/08 00:40:28;;;;;;;2.95;1.10;;;;;;;27.44;28.39;102001.31;5097577;28;20123;-44
2022/08/08 00:43:35;;;;;;;6.20;1.70;;;;;;;27.44;28.48;101982.88;5090489;28;20458;-44
2022/08/08 00:46:13;;;;;;;3.42;1.45;;;;;;;27.56;28.18;101995.38;5086021;28;20543;-43
2022/08/08 00:49:20;;;;;;;4.43;1.40;;;;;;;27.53;28.33;102003.22;5114920;28;20061;-43
2022/08/08 00:52:16;;;;;;;2.75;1.58;;;;;;;27.34;28.92;102002.91;5104701;28;20043;-51
2022/08/08 00:55:18;;;;;;;4.80;1.95;;;;;;;27.17;28.90;101978.97;5107260;28;20066;-53
2022/08/08 00:58:09;;;;;;;4.25;1.50;;;;;;;27.15;29.07;102000.00;5107458;28;20126;-44
2022/08/08 01:01:16;;;;;;;4.30;1.40;;;;;;;27.16;28.96;101987.72;5106467;28;20062;-46
2022/08/08 01:04:22;;;;;;;2.63;1.63;;;;;;;27.17;28.85;101978.97;5111422;28;20055;-46
2022/08/08 01:06:55;;;;;;;4.95;1.63;;;;;;;27.30;28.82;101986.19;5086468;28;20035;-46
2022/08/08 01:10:02;;;;;;;3.58;1.60;;;;;;;27.30;28.86;101988.81;5114293;28;20031;-44
2022/08/08 01:13:08;;;;;;;3.22;1.77;;;;;;;27.27;28.84;101995.81;5097263;28;20068;-44
2022/08/08 01:16:15;;;;;;;1.92;1.20;;;;;;;27.12;29.07;101980.63;5104723;28;20043;-43
2022/08/08 01:19:05;;;;;;;4.50;1.27;;;;;;;27.10;29.32;101985.91;5100280;28;20067;-45
2022/08/08 01:22:05;;;;;;;3.40;1.40;;;;;;;27.09;29.02;101986.75;5106177;28;20042;-44
2022/08/08 01:24:53;;;;;;;5.38;1.48;;;;;;;27.17;29.20;101985.97;5107692;28;20056;-43
2022/08/08 01:27:41;;;;;;;3.47;1.45;;;;;;;27.13;29.11;101985.94;5104325;28;20114;-51
2022/08/08 01:30:46;;;;;;;6.43;1.40;;;;;;;27.06;29.56;101986.69;5089783;28;20138;-52
2022/08/08 01:33:24;;;;;;;3.03;1.53;;;;;;;27.08;29.41;101987.63;5111528;28;20036;-54
2022/08/08 01:36:20;;;;;;;2.25;1.05;;;;;;;27.11;29.20;101982.41;5096030;28;20032;-45
2022/08/08 01:39:08;;;;;;;4.88;1.70;;;;;;;27.11;29.12;101985.03;5108139;28;20036;-45
2022/08/08 01:41:46;;;;;;;3.45;1.60;;;;;;;27.21;29.33;101983.44;5104069;28;20063;-46
2022/08/08 01:44:41;;;;;;;3.22;1.45;;;;;;;27.12;29.22;101983.28;5113964;28;20363;-43
2022/08/08 01:47:28;;;;;;;;;;;;;;;27.13;29.47;101983.31;5113973;28;20054;-52
2022/08/08 01:50:34;;;;;;;3.75;1.80;;;;;;;27.06;29.47;101984.06;5095561;28;19963;-44
2022/08/08 01:53:14;;;;;;;2.60;1.42;;;;;;;27.02;29.70;101981.38;5111203;28;20024;-52
2022/08/08 01:55:50;;;;;;;4.60;1.52;;;;;;;27.05;29.55;101982.28;5113374;28;20027;-44
2022/08/08 01:58:56;;;;;;;1.98;1.20;;;;;;;27.04;29.74;101977.88;5113427;28;20141;-48
2022/08/08 02:01:43;;;;;;;3.60;1.50;;;;;;;27.09;29.55;101975.31;5101844;28;20046;-51
2022/08/08 02:04:40;;;;;;;3.28;1.33;;;;;;;27.01;29.74;101975.19;5113508;28;20077;-45
2022/08/08 02:07:36;;;;;;;3.05;1.40;;;;;;;27.02;29.59;101973.47;5091328;28;20459;-48
2022/08/08 02:10:07;;;;;;;3.67;1.38;;;;;;;26.97;29.71;101976.91;5102992;28;20054;-44
2022/08/08 02:12:47;;;;;;;3.13;1.40;;;;;;;26.94;29.77;101974.22;5113398;28;20031;-45
2022/08/08 02:15:53;;;;;;;2.45;1.02;;;;;;;26.96;30.01;101984.78;5113412;28;20034;-53
2022/08/08 02:18:34;;;;;;;3.95;1.55;;;;;;;26.86;30.00;101980.22;5113475;28;20030;-44
2022/08/08 02:24:08;;;;;;;7.70;1.45;;;;;;;26.73;30.29;101972.06;5091071;28;20043;-47
2022/08/08 02:26:43;;;;;;;6.63;1.90;;;;;;;26.76;30.33;101982.66;5113766;28;20034;-54
2022/08/08 02:29:50;;;;;;;3.67;1.50;;;;;;;26.78;30.16;101985.31;5113617;28;20366;-45
2022/08/08 02:32:42;;;;;;;3.55;1.45;;;;;;;26.83;30.16;101983.69;5103365;28;20054;-49
2022/08/08 02:35:29;;;;;;;4.80;1.58;;;;;;;26.77;30.27;101978.28;5071658;28;20038;-45
2022/08/08 02:38:32;;;;;;;3.15;1.30;;;;;;;26.68;30.47;101971.09;5095316;28;20028;-44
2022/08/08 02:41:38;;;;;;;4.03;1.58;;;;;;;26.78;30.39;101982.69;5103961;28;20028;-46
2022/08/08 02:44:29;;;;;;;2.63;1.20;;;;;;;26.79;30.37;101982.75;5102061;28;20040;-45
2022/08/08 02:47:36;;;;;;;2.85;1.48;;;;;;;26.82;30.18;101980.16;5107001;28;20483;-44
2022/08/08 02:50:24;;;;;;;4.13;1.60;;;;;;;26.79;30.34;101987.09;5100807;28;20123;-45
2022/08/08 02:53:30;;;;;;;3.58;1.50;;;;;;;26.79;30.34;101984.47;5116422;28;20031;-44
2022/08/08 02:56:18;;;;;;;2.53;1.40;;;;;;;26.76;30.34;101987.03;5116664;28;20531;-47
2022/08/08 02:59:25;;;;;;;3.60;1.50;;;;;;;26.68;30.57;101990.44;5117152;28;20035;-47
2022/08/08 03:02:21;;;;;;;3.15;1.40;;;;;;;26.67;30.52;101987.75;5105415;28;20055;-51
2022/08/08 03:05:27;;;;;;;7.15;1.58;;;;;;;26.67;30.57;101988.66;5110524;28;20027;-43
2022/08/08 03:08:15;;;;;;;3.47;1.75;;;;;;;26.75;30.53;101991.41;5107320;28;20562;-46
2022/08/08 03:11:06;;;;;;;1.73;1.25;;;;;;;26.69;30.19;101980.78;5110534;28;20386;-49
2022/08/08 03:13:40;;;;;;;3.63;1.55;;;;;;;26.74;30.24;101991.38;5116790;28;20085;-43
2022/08/08 03:16:15;;;;;;;3.53;1.50;;;;;;;26.69;30.35;101989.56;5098773;28;20028;-45
2022/08/08 03:18:46;;;;;;;;;;;;;;;26.66;30.74;101992.16;5117353;28;20093;-44
2022/08/08 03:21:13;;;;;;;4.07;1.30;;;;;;;26.74;30.43;101988.75;5098949;28;20362;-44
2022/08/08 03:23:42;;;;;;;6.70;1.75;;;;;;;26.66;30.51;101981.63;5116111;28;20053;-46
2022/08/08 03:26:10;;;;;;;2.88;1.38;;;;;;;26.73;30.24;101990.50;5116536;28;20035;-48
2022/08/08 03:28:44;;;;;;;6.38;1.67;;;;;;;26.78;30.50;101996.75;5081739;28;20489;-43
2022/08/08 03:34:00;;;;;;;3.17;1.20;;;;;;;26.70;30.60;101995.72;5109223;28;20422;-45
2022/08/08 03:36:29;;;;;;;3.97;1.58;;;;;;;26.65;30.62;102010.53;5116192;28;20024;-45
2022/08/08 03:38:59;;;;;;;3.75;1.30;;;;;;;26.53;30.85;102011.22;5115718;28;20027;-45
2022/08/08 03:41:36;;;;;;;3.85;1.45;;;;;;;26.61;30.96;102006.09;5117399;28;20024;-44
2022/08/08 03:44:05;;;;;;;3.50;1.73;;;;;;;26.66;30.76;102018.47;5116158;28;20024;-43
2022/08/08 03:46:51;;;;;;;2.42;1.40;;;;;;;26.72;30.50;102022.06;5116030;28;20475;-50
2022/08/08 03:49:22;;;;;;;2.10;1.10;;;;;;;26.69;30.71;102017.63;5116127;28;20027;-44
2022/08/08 03:51:55;;;;;;;3.45;1.42;;;;;;;26.64;30.61;102027.19;5116260;28;20027;-44
2022/08/08 03:54:25;;;;;;;3.60;1.80;;;;;;;26.66;30.91;102028.09;5116147;28;20057;-45
2022/08/08 03:56:53;;;;;;;2.13;1.20;;;;;;;26.60;31.01;102018.34;5115570;28;20031;-50
2022/08/08 03:59:28;;;;;;;5.25;1.77;;;;;;;26.52;31.16;102023.47;5116093;28;20482;-43
2022/08/08 04:01:56;;;;;;;2.72;1.30;;;;;;;26.49;31.03;102018.13;5115925;28;20027;-47
2022/08/08 04:04:25;;;;;;;4.30;1.23;;;;;;;26.49;30.98;102023.41;5096626;28;20024;-49
2022/08/08 04:06:58;;;;;;;4.20;1.67;;;;;;;26.57;31.04;102025.31;5115783;28;20031;-51
2022/08/08 04:09:27;;;;;;;4.50;1.40;;;;;;;26.43;31.34;102019.75;5115726;28;20062;-44
2022/08/08 04:11:55;;;;;;;4.63;1.60;;;;;;;26.35;31.57;102032.78;5116021;28;20020;-43
2022/08/08 04:14:24;;;;;;;3.28;1.42;;;;;;;26.35;31.64;102032.78;5097295;28;20107;-53
2022/08/08 04:16:51;;;;;;;3.55;1.50;;;;;;;26.44;31.29;102037.31;5115150;28;20525;-44
2022/08/08 04:19:20;;;;;;;3.13;1.38;;;;;;;26.37;31.18;102025.78;5115817;28;20106;-46
2022/08/08 04:21:49;;;;;;;2.88;1.50;;;;;;;26.39;31.46;102037.25;5115516;28;20066;-43
2022/08/08 04:24:17;;;;;;;2.83;1.70;;;;;;;26.43;31.52;102030.28;5115186;28;20386;-52
2022/08/08 04:26:46;;;;;;;2.13;1.40;;;;;;;26.43;31.37;102036.47;5115792;28;20093;-44
2022/08/08 04:29:14;;;;;;;4.95;1.25;;;;;;;26.38;31.44;102011.78;5115502;28;20023;-43
2022/08/08 04:31:42;;;;;;;5.72;1.92;;;;;;;26.42;31.52;102034.69;5114797;28;20542;-44
2022/08/08 04:34:11;;;;;;;3.08;1.58;;;;;;;26.33;31.42;102035.38;5115155;28;20106;-47
2022/08/08 04:36:39;;;;;;;2.30;1.40;;;;;;;26.38;31.52;102035.47;5115054;28;20032;-47
2022/08/08 04:39:08;;;;;;;2.05;1.38;;;;;;;26.26;31.68;102035.22;5097279;28;20031;-50
2022/08/08 04:41:36;;;;;;;5.93;2.22;;;;;;;26.34;31.79;102036.25;5115455;28;20474;-44
2022/08/08 04:44:05;;;;;;;3.53;1.42;;;;;;;26.36;31.55;102039.81;5115503;28;20038;-46
2022/08/08 04:46:34;;;;;;;4.55;1.73;;;;;;;26.35;31.73;102033.69;5115157;28;20023;-45
2022/08/08 04:49:03;;;;;;;4.60;2.15;;;;;;;26.35;31.33;102038.94;5115055;28;20028;-43
2022/08/08 04:51:31;;;;;;;2.50;1.27;;;;;;;26.27;31.78;102031.75;5115458;28;20106;-46
2022/08/08 04:53:59;;;;;;;3.97;1.65;;;;;;;26.18;32.30;102042.97;5096926;28;20382;-51
2022/08/08 04:56:28;;;;;;;3.63;1.70;;;;;;;26.12;32.05;102034.94;5114723;28;20439;-52
2022/08/08 04:58:57;;;;;;;2.88;1.50;;;;;;;26.31;31.80;102038.84;5114931;28;20122;-46
2022/08/08 05:01:26;;;;;;;3.17;1.73;;;;;;;26.30;31.82;102039.72;5115606;28;20356;-43
2022/08/08 05:03:54;;;;;;;2.80;1.40;;;;;;;26.24;31.81;102041.34;5114962;28;20109;-53
2022/08/08 05:06:23;;;;;;;4.03;1.52;;;;;;;26.21;31.98;102043.91;5114891;28;20382;-44
2022/08/08 05:08:52;;;;;;;3.70;1.60;;;;;;;26.17;31.86;102042.06;5114707;28;20106;-50
2022/08/08 05:11:21;;;;;;;3.90;1.77;;;;;;;26.18;32.14;102049.09;5114710;28;20024;-43
2022/08/08 05:13:50;;;;;;;4.03;1.80;;;;;;;26.18;32.24;102051.72;5096202;28;20020;-51
2022/08/08 05:16:18;;;;;;;3.17;1.50;;;;;;;26.10;32.11;102050.66;5096000;28;20515;-43
2022/08/08 05:18:47;;;;;;;4.07;1.58;;;;;;;26.20;32.39;102049.16;5114437;28;20047;-44
2022/08/08 05:21:15;;;;;;;4.22;1.70;;;;;;;26.21;32.23;102054.44;5096098;28;20027;-44
2022/08/08 05:23:44;;;;;;;4.75;1.67;;;;;;;26.13;32.44;102058.66;5096237;28;20106;-47
2022/08/08 05:26:12;;;;;;;4.05;1.73;;;;;;;26.21;32.08;102059.69;5096135;28;20110;-47
2022/08/08 05:28:41;;;;;;;7.28;1.55;;;;;;;26.22;32.23;102058.84;5114088;28;20035;-48
2022/08/08 05:31:10;;;;;;;6.18;1.77;;;;;;;26.21;32.35;102066.72;5112894;28;20040;-46
2022/08/08 05:33:38;;;;;;;3.55;1.77;;;;;;;26.19;31.98;102058.75;5114155;28;20023;-53
2022/08/08 05:36:10;;;;;;;4.40;1.75;;;;;;;26.24;32.33;102067.66;5095896;28;20047;-47
2022/08/08 05:38:46;;;;;;;3.45;1.73;;;;;;;26.26;31.97;102065.03;5113854;28;20049;-44
2022/08/08 05:41:17;;;;;;;2.85;1.77;;;;;;;26.29;32.13;102069.50;5114326;28;20026;-43
2022/08/08 05:43:47;;;;;;;4.47;1.60;;;;;;;26.31;32.35;102079.19;5114464;28;20059;-43
2022/08/08 05:46:16;;;;;;;4.22;1.63;;;;;;;26.33;32.09;102077.47;5114478;28;20034;-54
2022/08/08 05:48:45;;;;;;;2.83;1.52;;;;;;;26.41;31.96;102087.25;5113841;28;20103;-44
2022/08/08 05:51:13;;;;;;;4.78;1.80;;;;;;;26.50;31.84;102082.19;5114050;28;20559;-48
2022/08/08 05:53:41;;;;;;;2.72;1.52;;;;;;;26.51;32.20;102071.69;5114073;28;20027;-44
2022/08/08 05:56:09;;;;;;;3.05;1.70;;;;;;;26.50;31.95;102080.44;5096009;28;20050;-46
2022/08/08 05:58:42;;;;;;;4.95;1.73;;;;;;;26.45;31.97;102079.47;5113750;28;20367;-53
2022/08/08 06:01:13;;;;;;;4.72;1.40;;;;;;;26.47;32.13;102072.50;5113880;28;20019;-53
2022/08/08 06:03:42;;;;;;;7.35;1.27;;;;;;;26.53;32.28;102072.59;5079758;28;20470;-48
2022/08/08 06:06:11;;;;;;;3.42;1.50;;;;;;;26.55;31.90;102067.38;5113544;28;20038;-53
2022/08/08 06:08:44;;;;;;;3.05;1.60;;;;;;;26.69;31.88;102080.78;5095108;28;20047;-53
2022/08/08 06:11:13;;;;;;;2.03;1.33;;;;;;;26.74;31.79;102081.78;5113744;28;20431;-46
2022/08/08 06:13:42;;;;;;;3.72;1.67;;;;;;;26.74;32.10;102087.03;5113388;28;20466;-47
2022/08/08 06:16:12;;;;;;;3.08;1.83;;;;;;;26.76;31.76;102087.06;5113344;28;20036;-54
2022/08/08 06:18:42;;;;;;;6.15;1.30;;;;;;;26.87;31.73;102095.19;5095329;28;20028;-44
2022/08/08 06:21:10;;;;;;;5.53;1.70;;;;;;;26.88;32.09;102089.97;5113567;28;20023;-43
2022/08/08 06:23:39;;;;;;;6.75;1.83;;;;;;;26.96;31.58;102095.38;5095170;28;20028;-50
2022/08/08 06:26:11;;;;;;;4.72;1.48;;;;;;;26.90;31.75;102080.34;5112483;28;20030;-44
2022/08/08 06:28:46;;;;;;;4.40;1.80;;;;;;;27.07;31.89;102083.28;5113186;28;20486;-43
2022/08/08 06:31:20;;;;;;;3.42;1.60;;;;;;;27.04;31.73;102088.50;5113493;28;20048;-49
2022/08/08 06:34:19;;;;;;;5.13;1.80;;;;;;;27.06;32.14;102092.03;5095871;28;20024;-43
2022/08/08 06:36:51;;;;;;;3.95;1.70;;;;;;;26.96;31.96;102074.31;5078100;28;20387;-47
2022/08/08 06:39:21;;;;;;;11.70;1.83;;;;;;;27.06;31.90;102094.69;5113218;28;20124;-52
2022/08/08 06:41:55;;;;;;;3.60;1.70;;;;;;;27.09;31.98;102085.94;5113318;28;20378;-47
2022/08/08 06:44:25;;;;;;;4.77;2.10;;;;;;;27.13;32.19;102082.50;5113432;28;20032;-48
2022/08/08 06:46:54;;;;;;;4.70;1.98;;;;;;;27.15;31.86;102073.75;5113319;28;20024;-47
2022/08/08 06:49:23;;;;;;;3.22;1.60;;;;;;;27.25;32.04;102081.81;5113181;28;20039;-45
2022/08/08 06:51:51;;;;;;;4.40;1.92;;;;;;;27.26;32.03;102091.50;5113877;28;20112;-48
2022/08/08 06:54:21;;;;;;;8.43;1.60;;;;;;;27.25;32.31;102087.09;5095086;28;20023;-46
2022/08/08 06:56:51;;;;;;;4.95;2.10;;;;;;;27.25;32.21;102087.97;5094888;28;20024;-44
2022/08/08 06:59:20;;;;;;;2.30;1.50;;;;;;;27.36;32.16;102100.44;5112835;28;20070;-48
2022/08/08 07:01:56;;;;;;;4.43;1.83;;;;;;;27.36;32.18;102098.69;5112950;28;20398;-45
2022/08/08 07:04:45;;;;;;;7.93;1.80;;;;;;;27.46;32.10;102107.66;5094454;28;20137;-46
2022/08/08 07:07:19;;;;;;;4.15;1.60;;;;;;;27.43;32.00;102113.75;5113486;28;20112;-45
2022/08/08 07:10:00;;;;;;;4.60;1.87;;;;;;;27.36;32.36;102118.91;5095386;28;20035;-46
2022/08/08 07:12:41;;;;;;;5.57;1.90;;;;;;;27.43;32.05;102113.75;5112522;28;20023;-44
2022/08/08 07:15:11;;;;;;;3.72;1.58;;;;;;;27.45;32.18;102124.31;5112895;28;20031;-43
2022/08/08 07:17:46;;;;;;;2.20;1.60;;;;;;;27.44;32.03;102123.44;5112920;28;20043;-46
2022/08/08 07:20:19;;;;;;;3.15;1.48;;;;;;;27.55;31.61;102120.97;5094666;28;20023;-45
2022/08/08 07:23:13;;;;;;;2.88;1.20;;;;;;;27.55;31.73;102131.53;5113124;28;20073;-51
2022/08/08 07:25:44;;;;;;;2.95;1.60;;;;;;;27.56;31.73;102127.16;5106967;28;20040;-52
2022/08/08 07:28:15;;;;;;;6.03;1.52;;;;;;;27.59;31.64;102135.13;5112762;28;20394;-51
2022/08/08 07:30:44;;;;;;;7.00;1.83;;;;;;;27.54;31.78;102127.16;5094369;28;20047;-43
2022/08/08 07:33:14;;;;;;;5.72;1.42;;;;;;;27.53;32.00;102129.75;5112829;28;20114;-44
2022/08/08 07:35:43;;;;;;;6.10;1.75;;;;;;;27.49;31.83;102131.44;5094352;28;20536;-44
2022/08/08 07:38:12;;;;;;;2.03;1.30;;;;;;;27.62;31.39;102127.25;5114855;28;20050;-45
2022/08/08 07:40:40;;;;;;;4.30;1.77;;;;;;;27.51;31.61;102113.91;5098599;28;20026;-43
2022/08/08 07:43:09;;;;;;;5.47;1.70;;;;;;;27.66;31.36;102142.25;5115872;28;20028;-48
2022/08/08 07:45:38;;;;;;;2.88;1.55;;;;;;;27.81;30.96;102144.25;5094493;28;20028;-54
2022/08/08 07:48:06;;;;;;;2.97;1.30;;;;;;;27.79;30.96;102142.47;5104270;28;20450;-48
2022/08/08 07:50:33;;;;;;;3.45;1.60;;;;;;;27.73;30.83;102145.84;5102670;28;20059;-48
2022/08/08 07:53:09;;;;;;;2.65;1.45;;;;;;;27.71;31.21;102137.06;5104398;28;20034;-47
2022/08/08 07:55:39;;;;;;;7.10;1.50;;;;;;;27.74;31.04;102140.63;5104415;28;20108;-49
2022/08/08 07:58:13;;;;;;;4.28;1.80;;;;;;;27.83;31.00;102144.25;5085264;28;20031;-53
2022/08/08 08:00:44;;;;;;;3.47;1.65;;;;;;;27.86;30.61;102149.59;5100477;28;20092;-48
2022/08/08 08:03:13;;;;;;;2.35;1.23;;;;;;;27.80;30.60;102117.88;5101867;28;20023;-48
2022/08/08 08:05:44;;;;;;;2.80;1.00;;;;;;;27.94;29.92;102141.78;5101488;28;20105;-46
2022/08/08 08:08:17;;;;;;;3.60;1.20;;;;;;;27.91;30.07;102142.63;5100654;28;20073;-51
2022/08/08 08:10:49;;;;;;;4.32;1.65;;;;;;;27.94;29.85;102147.97;5100152;28;20063;-47
2022/08/08 08:13:42;;;;;;;2.55;1.10;;;;;;;27.99;29.41;102150.66;5082178;28;20066;-45
2022/08/08 08:16:15;;;;;;;1.27;0.90;;;;;;;28.02;29.20;102143.66;5084061;28;20027;-46
2022/08/08 08:18:46;;;;;;;3.17;1.38;;;;;;;28.03;29.45;102141.94;5082902;28;20038;-44
2022/08/08 08:21:16;;;;;;;2.60;1.00;;;;;;;28.04;29.37;102139.31;5100337;28;20861;-45
2022/08/08 08:23:44;;;;;;;4.10;1.23;;;;;;;28.16;28.85;102143.00;5082760;28;20481;-46
2022/08/08 08:26:12;;;;;;;3.88;1.67;;;;;;;28.27;28.33;102141.41;5101631;28;20043;-50
2022/08/08 08:28:41;;;;;;;3.70;1.10;;;;;;;28.31;28.10;102140.56;5100708;28;20027;-47
2022/08/08 08:31:10;;;;;;;2.63;1.00;;;;;;;28.35;28.03;102138.88;5099857;28;20048;-51
2022/08/08 08:33:37;;;;;;;2.47;0.90;;;;;;;28.26;27.95;102118.53;5100464;28;20668;-43
2022/08/08 08:36:06;;;;;;;4.32;1.27;;;;;;;28.23;27.73;102117.59;5100034;28;20035;-44
2022/08/08 08:38:34;;;;;;;2.70;0.95;;;;;;;28.42;27.87;102137.19;5099388;28;20130;-45
2022/08/08 08:41:02;;;;;;;3.40;1.10;;;;;;;28.45;27.92;102140.75;5100498;28;20035;-49
2022/08/08 08:43:31;;;;;;;2.08;1.10;;;;;;;28.59;27.61;102142.69;5101417;28;20142;-45
2022/08/08 08:45:58;;;;;;;2.67;1.00;;;;;;;28.60;27.63;102134.78;5100149;28;20039;-46
2022/08/08 08:48:26;;;;;;;2.78;1.17;;;;;;;28.69;27.54;102133.13;5081542;28;20060;-47
2022/08/08 08:50:54;;;;;;;2.50;1.17;;;;;;;28.60;27.69;102133.88;5099682;28;20031;-46
2022/08/08 08:53:22;;;;;;;4.85;1.65;;;;;;;28.69;27.77;102138.41;5100666;28;20061;-49
2022/08/08 08:55:50;;;;;;;4.25;1.10;;;;;;;28.70;27.72;102124.31;5080828;28;20032;-53
2022/08/08 08:58:41;;;;;;;4.53;1.40;;;;;;;28.68;27.91;102136.63;5099680;28;20027;-46
2022/08/08 09:01:10;;;;;;;4.03;1.35;;;;;;;28.64;27.80;102136.56;5062276;28;20051;-46
2022/08/08 09:03:46;;;;;;;6.05;1.25;;;;;;;28.60;27.92;102129.50;5099720;28;20030;-48
2022/08/08 09:06:18;;;;;;;4.65;1.60;;;;;;;28.72;27.29;102141.06;5081950;28;20560;-48
2022/08/08 09:08:48;;;;;;;3.38;1.30;;;;;;;28.70;27.39;102126.97;5099906;28;20533;-45
2022/08/08 09:11:16;;;;;;;3.00;1.17;;;;;;;28.72;27.49;102134.03;5099391;28;20114;-45
2022/08/08 09:13:45;;;;;;;2.03;0.77;;;;;;;28.64;27.71;102119.88;5081740;28;20020;-47
2022/08/08 09:16:12;;;;;;;4.40;1.30;;;;;;;28.65;27.71;102133.06;5081212;28;20046;-48
2022/08/08 09:18:43;;;;;;;1.83;1.10;;;;;;;28.72;27.98;102123.47;5081477;28;20523;-46
2022/08/08 09:21:12;;;;;;;2.22;0.90;;;;;;;28.75;27.69;102118.25;5064527;28;20082;-45
2022/08/08 09:23:40;;;;;;;3.97;1.25;;;;;;;28.82;27.56;102124.47;5081457;28;20070;-46
2022/08/08 09:26:32;;;;;;;4.97;1.10;;;;;;;28.96;27.04;102128.16;5064694;28;20482;-49
2022/08/08 09:29:02;;;;;;;2.65;1.30;;;;;;;28.98;27.20;102116.72;5075424;28;20407;-46
2022/08/08 09:31:54;;;;;;;5.40;1.30;;;;;;;28.93;27.38;102101.72;5098511;28;21005;-44
2022/08/08 09:34:22;;;;;;;3.58;1.15;;;;;;;28.99;27.43;102102.63;5090903;28;20035;-46
2022/08/08 09:36:53;;;;;;;2.92;1.17;;;;;;;28.98;27.29;102101.78;5080799;28;20823;-50
2022/08/08 09:39:21;;;;;;;2.05;1.10;;;;;;;29.04;27.30;102096.53;5099476;28;20060;-45
2022/08/08 09:42:01;;;;;;;6.85;1.30;;;;;;;29.04;27.46;102103.56;5080723;28;20036;-48
2022/08/08 09:44:49;;;;;;;6.38;1.35;;;;;;;29.10;27.81;102106.28;5081509;28;20036;-46
2022/08/08 09:47:19;;;;;;;5.15;1.60;;;;;;;29.18;27.54;102101.94;5089307;28;20075;-45
2022/08/08 09:49:48;;;;;;;3.22;1.27;;;;;;;29.15;27.70;102114.25;5107008;28;20054;-45
2022/08/08 09:52:22;;;;;;;2.80;1.40;;;;;;;29.20;27.50;102107.25;5092640;28;20088;-46
2022/08/08 09:54:51;;;;;;;3.75;1.30;;;;;;;29.28;27.71;102102.03;5110879;28;20058;-44
2022/08/08 09:57:27;;;;;;;5.00;1.17;;;;;;;29.27;27.28;102095.84;5092135;28;20039;-47
2022/08/08 09:59:56;;;;;;;5.90;1.67;;;;;;;29.31;27.74;102104.69;5110373;28;20035;-46
2022/08/08 10:02:32;;;;;;;4.28;1.33;;;;;;;29.36;27.42;102095.97;5092574;28;20027;-45
2022/08/08 10:05:05;;;;;;;4.63;1.67;;;;;;;29.38;27.19;102099.50;5092719;28;20034;-49
2022/08/08 10:07:33;;;;;;;5.03;1.48;;;;;;;29.47;26.95;102097.81;5107392;28;20377;-52
2022/08/08 10:10:02;;;;;;;4.88;1.67;;;;;;;29.49;27.11;102089.00;5111350;28;20055;-44
2022/08/08 10:12:33;;;;;;;7.10;1.75;;;;;;;29.34;27.14;102083.56;5111433;28;20031;-44
2022/08/08 10:15:02;;;;;;;4.18;1.50;;;;;;;29.44;27.12;102077.53;5110871;28;20051;-47
2022/08/08 10:17:32;;;;;;;7.25;1.45;;;;;;;29.47;27.35;102084.59;5108054;28;20023;-47
2022/08/08 10:20:02;;;;;;;5.32;1.70;;;;;;;29.60;26.70;102072.34;5110886;28;20062;-44
2022/08/08 10:22:34;;;;;;;6.07;2.00;;;;;;;29.65;26.89;102074.13;5110834;28;20030;-45
2022/08/08 10:25:06;;;;;;;2.83;1.83;;;;;;;29.60;26.85;102075.00;5110409;28;20026;-46
2022/08/08 10:27:44;;;;;;;2.85;1.52;;;;;;;29.38;26.93;102074.81;5109602;28;20048;-47
2022/08/08 10:30:13;;;;;;;3.95;1.42;;;;;;;29.55;26.98;102077.56;5092588;28;20051;-47
2022/08/08 10:32:42;;;;;;;4.57;1.52;;;;;;;29.56;26.75;102067.03;5092923;28;20055;-47
2022/08/08 10:35:17;;;;;;;4.18;1.70;;;;;;;29.55;26.94;102065.25;5110442;28;20390;-46
2022/08/08 10:37:52;;;;;;;4.45;1.50;;;;;;;29.46;27.01;102070.47;5109785;28;20058;-47
2022/08/08 10:40:21;;;;;;;3.95;1.73;;;;;;;29.59;26.60;102067.94;5110201;28;20031;-48
2022/08/08 10:42:54;;;;;;;7.55;1.50;;;;;;;29.60;26.99;102073.22;5093013;28;20346;-45
2022/08/08 10:45:22;;;;;;;5.03;1.20;;;;;;;29.60;26.52;102057.34;5110688;28;20107;-45
2022/08/08 10:47:56;;;;;;;7.60;2.10;;;;;;;29.62;26.77;102065.31;5108991;28;20019;-45
2022/08/08 10:50:31;;;;;;;8.05;1.63;;;;;;;29.61;26.65;102063.53;5110504;28;20051;-48
2022/08/08 10:53:11;;;;;;;4.03;1.75;;;;;;;29.73;27.10;102063.59;5110405;28;20421;-47
2022/08/08 10:55:41;;;;;;;7.82;1.55;;;;;;;29.61;26.45;102042.38;5109366;28;20375;-43
2022/08/08 10:58:09;;;;;;;4.28;1.67;;;;;;;29.69;26.76;102067.09;5109887;28;20027;-47
2022/08/08 11:00:46;;;;;;;5.80;1.40;;;;;;;29.60;26.79;102062.63;5091897;28;20450;-43
2022/08/08 11:03:16;;;;;;;5.07;1.30;;;;;;;29.67;26.48;102060.91;5090480;28;20106;-49
2022/08/08 11:05:49;;;;;;;4.45;1.85;;;;;;;29.86;26.22;102068.09;5109192;28;20016;-46
2022/08/08 11:08:27;;;;;;;7.65;1.90;;;;;;;29.86;26.61;102060.16;5110229;28;20028;-48
2022/08/08 11:11:06;;;;;;;2.72;1.60;;;;;;;29.90;26.72;102058.41;5110774;28;20089;-46
2022/08/08 11:13:54;;;;;;;2.90;1.60;;;;;;;30.01;26.13;102042.59;5095046;28;20035;-46
2022/08/08 11:16:23;;;;;;;2.85;1.50;;;;;;;29.90;26.60;102050.47;5113574;28;20032;-48
2022/08/08 11:18:52;;;;;;;3.55;1.27;;;;;;;29.96;26.22;102057.56;5113945;28;20992;-45
2022/08/08 11:21:19;;;;;;;4.63;1.80;;;;;;;30.07;26.15;102047.94;5095719;28;20038;-48
2022/08/08 11:23:48;;;;;;;2.90;1.50;;;;;;;30.13;26.46;102052.38;5113936;28;20070;-44
2022/08/08 11:26:17;;;;;;;12.77;1.92;;;;;;;30.03;26.70;102053.22;5112544;28;20027;-47
2022/08/08 11:28:45;;;;;;;5.70;1.60;;;;;;;30.17;26.39;102055.03;5113764;28;20507;-46
2022/08/08 11:31:17;;;;;;;5.20;1.70;;;;;;;30.25;26.29;102052.41;5113809;28;20048;-44
2022/08/08 11:33:51;;;;;;;2.58;1.27;;;;;;;30.29;26.05;102045.34;5113684;28;20031;-44
2022/08/08 11:36:20;;;;;;;6.15;1.30;;;;;;;30.31;26.17;102046.25;5094647;28;20405;-44
2022/08/08 11:38:48;;;;;;;3.40;1.30;;;;;;;30.34;26.03;102051.53;5113040;28;20031;-43
2022/08/08 11:41:18;;;;;;;7.03;1.70;;;;;;;30.30;26.37;102044.47;5109669;28;20038;-51
2022/08/08 11:43:47;;;;;;;4.15;1.33;;;;;;;30.35;25.73;102039.22;5114174;28;20067;-43
2022/08/08 11:46:16;;;;;;;2.45;1.20;;;;;;;30.51;25.74;102046.31;5112651;28;20023;-45
2022/08/08 11:48:45;;;;;;;4.47;1.45;;;;;;;30.37;25.75;102059.50;5094859;28;20086;-54
2022/08/08 11:51:14;;;;;;;7.22;1.65;;;;;;;30.24;26.23;102049.75;5095301;28;20386;-44
2022/08/08 11:53:42;;;;;;;1.50;1.10;;;;;;;30.32;26.22;102040.06;5113613;28;20031;-45
2022/08/08 11:56:19;;;;;;;3.60;1.20;;;;;;;30.43;25.80;102053.34;5093953;28;20052;-47
2022/08/08 11:58:48;;;;;;;7.38;1.80;;;;;;;30.41;25.72;102044.50;5113118;28;20489;-49
2022/08/08 12:01:15;;;;;;;5.25;1.40;;;;;;;30.33;26.33;102031.25;5113707;28;20024;-48
2022/08/08 12:03:48;;;;;;;2.40;1.17;;;;;;;30.40;25.71;102034.78;5113385;28;20023;-44
2022/08/08 12:06:21;;;;;;;3.10;0.90;;;;;;;30.38;26.32;102029.50;5111572;28;20089;-45
2022/08/08 12:08:50;;;;;;;8.15;1.50;;;;;;;30.47;26.37;102018.06;5095312;28;20164;-45
2022/08/08 12:11:19;;;;;;;3.65;1.30;;;;;;;30.56;25.77;102025.16;5112762;28;20466;-48